Terminal Aerodrome Forecast
Issued by NWS

Home | Current Version | Previous Version | Text Only | Print | Product List | Glossary On
Versions: 1 2 3 4 5 6 7 8 9 10 11 12 13 14 15 16 17 18 19 20 21
000
FTUS44 KHGX 311159 AAA
TAFCXO
TAF AMD
KCXO 311159Z 3112/0112 00000KT 3SM BR SCT005 SCT250
      TEMPO 3112/3113 3/4SM BR VV005
     FM311500 16005KT P6SM SCT025
     FM311800 16007KT P6SM SCT035 BKN250
     FM312100 15007KT P6SM VCTS SCT045CB BKN150
     FM010400 VRB02KT 4SM BR BKN250
     FM010800 35001KT 3SM BR BKN025=

USA.gov is the U.S. government's official web portal to all federal, state and local government web resources and services.